Time;durP1;ratioP1;P1;durP2;ratioP2;P2;SDS_P1;SDS_P2;PMS_P1;PMS_P2;Temp;Humidity;BMP_temperature;BMP_pressure;BME280_temperature;BME280_humidity;BME280_pressure;Samples;Min_cycle;Max_cycle;Signal;HPM_P1;HPM_P2
2022/06/05 00:00:16;;;;;;;4.63;1.27;;;;;;;;;;5004739;28;20065;-63
2022/06/05 00:02:43;;;;;;;6.60;1.30;;;;;;;;;;5015323;28;20030;-65
2022/06/05 00:05:15;;;;;;;6.00;1.02;;;;;;;;;;5002162;28;20125;-66
2022/06/05 00:08:00;;;;;;;8.85;1.52;;;;;;;;;;5002231;28;20038;-64
2022/06/05 00:10:28;;;;;;;4.43;1.50;;;;;;;;;;4999917;28;20054;-64
2022/06/05 00:13:04;;;;;;;4.43;1.40;;;;;;;;;;5000582;28;20121;-65
2022/06/05 00:15:32;;;;;;;5.18;1.30;;;;;;;;;;4999525;28;20050;-65
2022/06/05 00:17:59;;;;;;;3.78;1.20;;;;;;;;;;4998257;28;20088;-65
2022/06/05 00:20:26;;;;;;;7.53;1.20;;;;;;;;;;4998693;28;20045;-63
2022/06/05 00:23:02;;;;;;;3.47;1.10;;;;;;;;;;4999488;28;20117;-64
2022/06/05 00:25:41;;;;;;;3.78;1.10;;;;;;;;;;5002661;28;20402;-63
2022/06/05 00:28:18;;;;;;;3.63;1.10;;;;;;;;;;5034169;28;20041;-63
2022/06/05 00:31:04;;;;;;;4.07;1.40;;;;;;;;;;5032152;28;20038;-63
2022/06/05 00:33:37;;;;;;;3.72;1.30;;;;;;;;;;4990151;28;20049;-62
2022/06/05 00:36:07;;;;;;;3.28;1.05;;;;;;;;;;5003437;28;20045;-62
2022/06/05 00:38:52;;;;;;;5.43;1.45;;;;;;;;;;5000542;28;20127;-64
2022/06/05 00:41:38;;;;;;;2.88;1.13;;;;;;;;;;4997432;28;20088;-61
2022/06/05 00:44:05;;;;;;;3.65;1.20;;;;;;;;;;4995803;28;20064;-65
2022/06/05 00:46:33;;;;;;;3.92;1.50;;;;;;;;;;4997082;28;20096;-63
2022/06/05 00:49:00;;;;;;;3.03;1.00;;;;;;;;;;4996908;28;20033;-64
2022/06/05 00:51:28;;;;;;;3.63;1.10;;;;;;;;;;4996956;28;20034;-63
2022/06/05 00:53:55;;;;;;;3.13;1.00;;;;;;;;;;4995731;28;20139;-63
2022/06/05 00:56:22;;;;;;;3.58;1.05;;;;;;;;;;4995609;28;20041;-64
2022/06/05 00:58:48;;;;;;;3.10;1.25;;;;;;;;;;4996186;28;20057;-65
2022/06/05 01:01:15;;;;;;;3.47;1.40;;;;;;;;;;4995948;28;20053;-65
2022/06/05 01:03:42;;;;;;;3.88;1.15;;;;;;;;;;4994745;28;20441;-65
2022/06/05 01:06:08;;;;;;;3.60;1.00;;;;;;;;;;4994728;28;20046;-65
2022/06/05 01:08:35;;;;;;;3.25;0.95;;;;;;;;;;4994930;28;20045;-66
2022/06/05 01:11:06;;;;;;;2.80;0.93;;;;;;;;;;4995335;28;20038;-65
2022/06/05 01:13:48;;;;;;;3.08;1.10;;;;;;;;;;4993609;28;20072;-66
2022/06/05 01:16:21;;;;;;;2.60;0.90;;;;;;;;;;4994929;28;20167;-66
2022/06/05 01:18:55;;;;;;;6.05;1.20;;;;;;;;;;4993599;28;20409;-65
2022/06/05 01:21:40;;;;;;;12.93;1.30;;;;;;;;;;4995199;28;20046;-65
2022/06/05 01:24:10;;;;;;;5.32;1.17;;;;;;;;;;4994168;28;20049;-65
2022/06/05 01:26:50;;;;;;;4.20;1.10;;;;;;;;;;4997460;28;20405;-65
2022/06/05 01:29:21;;;;;;;3.00;1.20;;;;;;;;;;4999560;28;20477;-65
2022/06/05 01:31:54;;;;;;;3.30;1.13;;;;;;;;;;4997611;28;20056;-65
2022/06/05 01:34:21;;;;;;;5.13;0.82;;;;;;;;;;4998037;28;20133;-65
2022/06/05 01:36:50;;;;;;;2.63;0.85;;;;;;;;;;4999159;28;20054;-66
2022/06/05 01:39:23;;;;;;;4.50;1.33;;;;;;;;;;4998141;28;20462;-66
2022/06/05 01:41:51;;;;;;;2.70;0.90;;;;;;;;;;4996418;28;20044;-66
2022/06/05 01:44:24;;;;;;;4.85;0.90;;;;;;;;;;4999311;28;20132;-65
2022/06/05 01:46:50;;;;;;;;;;;;;;;;;;4999001;28;20145;-65
2022/06/05 01:49:27;;;;;;;5.20;1.30;;;;;;;;;;5000378;28;19921;-65
2022/06/05 01:52:02;;;;;;;3.45;0.90;;;;;;;;;;4998044;28;20084;-66
2022/06/05 01:54:35;;;;;;;2.53;0.88;;;;;;;;;;4998260;28;20058;-65
2022/06/05 01:57:05;;;;;;;3.10;1.05;;;;;;;;;;5003606;28;20049;-59
2022/06/05 01:59:38;;;;;;;4.97;1.58;;;;;;;;;;5031310;28;20042;-62
2022/06/05 02:02:04;;;;;;;;;;;;;;;;;;5000409;28;20085;-63
2022/06/05 02:04:37;;;;;;;2.58;0.80;;;;;;;;;;4999182;28;19991;-64
2022/06/05 02:07:08;;;;;;;5.18;1.00;;;;;;;;;;5001874;28;20049;-64
2022/06/05 02:09:37;;;;;;;4.40;0.95;;;;;;;;;;4998473;28;20093;-64
2022/06/05 02:12:06;;;;;;;2.80;0.80;;;;;;;;;;4997837;28;20086;-66
2022/06/05 02:14:33;;;;;;;3.88;0.82;;;;;;;;;;4997050;28;20046;-64
2022/06/05 02:17:00;;;;;;;2.67;0.82;;;;;;;;;;4999422;28;20515;-65
2022/06/05 02:19:27;;;;;;;3.00;1.00;;;;;;;;;;4998833;28;20092;-66
2022/06/05 02:21:55;;;;;;;3.55;0.90;;;;;;;;;;4997695;28;20038;-65
2022/06/05 02:24:22;;;;;;;3.13;1.08;;;;;;;;;;4997741;28;20046;-65
2022/06/05 02:26:48;;;;;;;5.57;0.95;;;;;;;;;;4999734;28;20066;-65
2022/06/05 02:29:17;;;;;;;2.65;0.90;;;;;;;;;;4999092;28;20046;-65
2022/06/05 02:31:50;;;;;;;4.43;1.00;;;;;;;;;;5000178;28;20052;-64
2022/06/05 02:34:22;;;;;;;3.08;0.90;;;;;;;;;;5000005;28;20064;-62
2022/06/05 02:36:57;;;;;;;4.40;0.80;;;;;;;;;;4997849;28;20180;-63
2022/06/05 02:39:24;;;;;;;4.05;1.00;;;;;;;;;;5030804;28;20038;-64
2022/06/05 02:41:58;;;;;;;3.20;1.10;;;;;;;;;;4999850;28;20140;-62
2022/06/05 02:44:38;;;;;;;6.90;0.95;;;;;;;;;;4999571;28;20077;-63
2022/06/05 02:47:11;;;;;;;3.42;0.80;;;;;;;;;;5001025;28;20048;-64
2022/06/05 02:49:44;;;;;;;4.05;0.80;;;;;;;;;;5000142;28;20069;-63
2022/06/05 02:52:10;;;;;;;;;;;;;;;;;;5001607;28;20506;-64
2022/06/05 02:54:42;;;;;;;3.47;0.93;;;;;;;;;;5000394;28;20010;-64
2022/06/05 02:57:09;;;;;;;2.33;0.85;;;;;;;;;;5000616;28;20045;-64
2022/06/05 02:59:35;;;;;;;4.93;0.85;;;;;;;;;;4997710;28;20057;-64
2022/06/05 03:04:47;;;;;;;3.90;0.80;;;;;;;;;;4999325;28;20061;-64
2022/06/05 03:07:14;;;;;;;2.95;0.80;;;;;;;;;;5015213;28;20049;-63
2022/06/05 03:09:45;;;;;;;3.08;0.90;;;;;;;;;;4999890;28;20693;-64
2022/06/05 03:12:12;;;;;;;2.30;0.70;;;;;;;;;;5031847;28;20040;-64
2022/06/05 03:14:38;;;;;;;2.63;0.90;;;;;;;;;;4998002;28;20054;-63
2022/06/05 03:17:05;;;;;;;4.45;1.10;;;;;;;;;;4999443;28;20155;-64
2022/06/05 03:19:32;;;;;;;2.60;0.85;;;;;;;;;;4997747;28;20099;-64
2022/06/05 03:21:59;;;;;;;3.00;0.98;;;;;;;;;;4998329;28;20046;-64
2022/06/05 03:24:25;;;;;;;5.53;1.15;;;;;;;;;;4996851;28;20111;-64
2022/06/05 03:26:52;;;;;;;3.33;1.15;;;;;;;;;;4998971;28;20041;-65
2022/06/05 03:29:20;;;;;;;4.55;1.75;;;;;;;;;;4996868;28;20042;-63
2022/06/05 03:31:47;;;;;;;4.10;1.23;;;;;;;;;;4996956;28;20050;-67
2022/06/05 03:34:14;;;;;;;3.70;1.20;;;;;;;;;;4996603;28;20444;-64
2022/06/05 03:36:40;;;;;;;2.72;0.95;;;;;;;;;;4997343;28;20038;-65
2022/06/05 03:39:07;;;;;;;3.38;0.80;;;;;;;;;;4997362;28;20049;-65
2022/06/05 03:41:34;;;;;;;4.55;1.10;;;;;;;;;;5027358;28;20042;-65
2022/06/05 03:44:01;;;;;;;3.97;1.10;;;;;;;;;;4996760;28;20053;-65
2022/06/05 03:46:27;;;;;;;2.85;0.90;;;;;;;;;;4995417;28;20124;-65
2022/06/05 03:48:54;;;;;;;4.80;1.30;;;;;;;;;;4997002;28;20045;-66
2022/06/05 03:51:22;;;;;;;2.70;0.80;;;;;;;;;;4994827;28;20096;-64
2022/06/05 03:53:49;;;;;;;3.60;1.08;;;;;;;;;;4996739;28;20097;-66
2022/06/05 03:56:21;;;;;;;2.95;1.00;;;;;;;;;;4997003;28;20034;-66
2022/06/05 03:58:48;;;;;;;3.30;1.20;;;;;;;;;;4995853;28;20462;-67
2022/06/05 04:01:16;;;;;;;3.17;1.00;;;;;;;;;;4996358;28;20069;-66
2022/06/05 04:03:43;;;;;;;2.90;1.00;;;;;;;;;;4995295;28;20049;-64
2022/06/05 04:06:10;;;;;;;4.80;1.20;;;;;;;;;;4995589;28;20210;-63
2022/06/05 04:08:38;;;;;;;3.78;0.98;;;;;;;;;;4997167;28;20065;-65
2022/06/05 04:11:22;;;;;;;3.58;1.50;;;;;;;;;;4997780;28;20034;-63
2022/06/05 04:13:49;;;;;;;5.75;2.10;;;;;;;;;;4996671;28;20133;-64
2022/06/05 04:16:18;;;;;;;4.28;1.40;;;;;;;;;;4997840;28;20497;-66
2022/06/05 04:18:45;;;;;;;5.65;1.10;;;;;;;;;;4992821;28;20041;-66
2022/06/05 04:21:14;;;;;;;2.53;0.90;;;;;;;;;;5021497;28;20498;-66
2022/06/05 04:23:41;;;;;;;4.45;0.95;;;;;;;;;;4995421;28;20450;-66
2022/06/05 04:26:09;;;;;;;3.08;1.30;;;;;;;;;;4996790;28;20524;-66
2022/06/05 04:28:36;;;;;;;4.50;1.25;;;;;;;;;;4997097;28;20042;-67
2022/06/05 04:31:03;;;;;;;6.80;1.10;;;;;;;;;;4995304;28;20130;-66
2022/06/05 04:33:32;;;;;;;3.70;1.27;;;;;;;;;;4995558;28;20099;-65
2022/06/05 04:35:59;;;;;;;4.57;1.20;;;;;;;;;;4996273;28;20045;-65
2022/06/05 04:38:25;;;;;;;4.93;1.30;;;;;;;;;;4994097;28;20056;-65
2022/06/05 04:40:52;;;;;;;4.05;1.42;;;;;;;;;;4995160;28;20036;-65
2022/06/05 04:43:19;;;;;;;3.28;1.13;;;;;;;;;;4996028;28;20591;-62
2022/06/05 04:45:45;;;;;;;3.45;1.33;;;;;;;;;;4995553;28;20038;-66
2022/06/05 04:48:12;;;;;;;4.90;1.38;;;;;;;;;;4996981;28;20092;-66
2022/06/05 04:50:39;;;;;;;4.78;1.45;;;;;;;;;;4995427;28;20042;-66
2022/06/05 04:53:06;;;;;;;4.57;1.30;;;;;;;;;;4995983;28;20057;-66
2022/06/05 04:55:33;;;;;;;3.30;1.23;;;;;;;;;;4996096;28;20050;-65
2022/06/05 04:57:59;;;;;;;4.63;1.20;;;;;;;;;;4996590;28;20050;-64
2022/06/05 05:00:26;;;;;;;3.67;1.15;;;;;;;;;;4995250;28;20224;-65
2022/06/05 05:02:52;;;;;;;6.85;1.52;;;;;;;;;;4998172;28;20073;-65
2022/06/05 05:05:19;;;;;;;5.50;1.80;;;;;;;;;;5000071;28;20064;-66
2022/06/05 05:07:47;;;;;;;6.25;1.77;;;;;;;;;;4998685;28;20528;-66
2022/06/05 05:10:14;;;;;;;7.72;2.05;;;;;;;;;;5000054;28;21727;-66
2022/06/05 05:12:40;;;;;;;3.90;1.50;;;;;;;;;;4998785;28;20038;-64
2022/06/05 05:15:08;;;;;;;3.88;1.63;;;;;;;;;;4998351;28;20076;-65
2022/06/05 05:17:34;;;;;;;5.43;1.65;;;;;;;;;;4999940;28;20076;-64
2022/06/05 05:20:01;;;;;;;5.32;1.85;;;;;;;;;;5000653;28;20121;-65
2022/06/05 05:22:28;;;;;;;3.63;1.70;;;;;;;;;;4999101;28;20041;-65
2022/06/05 05:24:54;;;;;;;7.10;2.10;;;;;;;;;;4999344;28;20121;-64
2022/06/05 05:27:21;;;;;;;7.30;2.13;;;;;;;;;;4999218;28;20042;-65
2022/06/05 05:29:47;;;;;;;4.78;2.28;;;;;;;;;;5000004;28;20127;-65
2022/06/05 05:32:14;;;;;;;5.68;2.45;;;;;;;;;;4998696;28;20129;-65
2022/06/05 05:34:41;;;;;;;4.93;2.28;;;;;;;;;;4999799;28;20066;-66
2022/06/05 05:37:07;;;;;;;6.00;2.58;;;;;;;;;;5016456;28;20073;-66
2022/06/05 05:42:19;;;;;;;7.53;2.90;;;;;;;;;;4995663;28;20167;-67
2022/06/05 05:44:47;;;;;;;5.80;3.05;;;;;;;;;;5014255;28;20062;-66
2022/06/05 05:47:21;;;;;;;8.35;2.92;;;;;;;;;;5000054;28;20042;-65
2022/06/05 05:49:51;;;;;;;8.15;3.40;;;;;;;;;;5001654;28;20158;-66
2022/06/05 05:52:18;;;;;;;7.07;3.22;;;;;;;;;;5001810;28;20046;-66
2022/06/05 05:54:45;;;;;;;5.43;2.85;;;;;;;;;;5000761;28;20058;-64
2022/06/05 05:57:11;;;;;;;6.32;3.00;;;;;;;;;;4999801;28;20125;-65
2022/06/05 05:59:38;;;;;;;7.00;3.42;;;;;;;;;;4998535;28;20165;-65
2022/06/05 06:02:11;;;;;;;6.65;3.55;;;;;;;;;;4999150;28;20038;-64
2022/06/05 06:04:40;;;;;;;9.53;3.83;;;;;;;;;;4999576;28;20057;-65
2022/06/05 06:07:07;;;;;;;8.55;4.10;;;;;;;;;;4999400;28;20080;-64
2022/06/05 06:09:34;;;;;;;8.18;3.92;;;;;;;;;;5000026;28;20034;-64
2022/06/05 06:12:01;;;;;;;7.25;4.25;;;;;;;;;;4999150;28;20084;-64
2022/06/05 06:14:27;;;;;;;6.13;3.80;;;;;;;;;;4998618;28;20100;-64
2022/06/05 06:16:54;;;;;;;6.65;4.43;;;;;;;;;;5000447;28;20117;-63
2022/06/05 06:19:21;;;;;;;7.15;3.75;;;;;;;;;;5001225;28;20038;-62
2022/06/05 06:21:47;;;;;;;5.85;4.00;;;;;;;;;;5000093;28;20394;-64
2022/06/05 06:24:14;;;;;;;6.05;3.53;;;;;;;;;;5023206;28;20057;-63
2022/06/05 06:26:41;;;;;;;6.35;3.90;;;;;;;;;;5008071;28;20076;-63
2022/06/05 06:29:08;;;;;;;9.73;4.10;;;;;;;;;;5015580;28;20038;-63
2022/06/05 06:31:35;;;;;;;7.70;3.80;;;;;;;;;;5018291;28;20709;-64
2022/06/05 06:34:02;;;;;;;9.07;3.90;;;;;;;;;;5003298;28;20038;-64
2022/06/05 06:36:29;;;;;;;6.03;3.88;;;;;;;;;;4999448;28;20042;-64
2022/06/05 06:38:56;;;;;;;6.70;3.67;;;;;;;;;;4999285;28;20037;-63
2022/06/05 06:41:22;;;;;;;5.80;3.40;;;;;;;;;;4997158;28;20045;-63
2022/06/05 06:43:49;;;;;;;6.22;3.83;;;;;;;;;;4997584;28;20050;-63
2022/06/05 06:46:17;;;;;;;5.85;3.83;;;;;;;;;;4998040;28;20046;-63
2022/06/05 06:48:43;;;;;;;5.00;3.13;;;;;;;;;;4997965;28;20621;-64
2022/06/05 06:51:10;;;;;;;6.38;3.30;;;;;;;;;;4997655;28;20034;-63
2022/06/05 06:53:37;;;;;;;6.78;3.45;;;;;;;;;;4997957;28;20042;-63
2022/06/05 06:56:08;;;;;;;6.70;4.03;;;;;;;;;;4998057;28;20646;-63
2022/06/05 06:58:35;;;;;;;5.55;3.30;;;;;;;;;;4996348;28;20128;-64
2022/06/05 07:01:01;;;;;;;7.93;3.72;;;;;;;;;;4997885;28;20041;-64
2022/06/05 07:03:28;;;;;;;8.32;4.47;;;;;;;;;;4997473;28;20050;-63
2022/06/05 07:05:54;;;;;;;6.40;3.67;;;;;;;;;;4997825;28;20042;-63
2022/06/05 07:08:21;;;;;;;7.97;3.97;;;;;;;;;;4997119;28;20124;-65
2022/06/05 07:10:48;;;;;;;6.45;3.58;;;;;;;;;;4997788;28;20050;-64
2022/06/05 07:13:16;;;;;;;7.32;3.25;;;;;;;;;;4997147;28;20516;-64
2022/06/05 07:15:42;;;;;;;7.75;3.60;;;;;;;;;;4997131;28;20500;-64
2022/06/05 07:18:09;;;;;;;6.50;3.03;;;;;;;;;;5000240;28;20042;-64
2022/06/05 07:20:41;;;;;;;6.35;2.80;;;;;;;;;;4999139;28;20041;-64
2022/06/05 07:23:08;;;;;;;6.25;3.40;;;;;;;;;;4999222;28;20045;-63
2022/06/05 07:25:35;;;;;;;5.93;3.60;;;;;;;;;;4998587;28;20156;-64
2022/06/05 07:28:02;;;;;;;5.78;3.83;;;;;;;;;;5000881;28;20042;-65
2022/06/05 07:30:29;;;;;;;7.32;4.05;;;;;;;;;;5000099;28;20041;-64
2022/06/05 07:32:56;;;;;;;6.28;3.95;;;;;;;;;;4999455;28;20140;-64
2022/06/05 07:35:23;;;;;;;5.43;3.40;;;;;;;;;;4999639;28;20034;-65
2022/06/05 07:37:50;;;;;;;5.70;3.03;;;;;;;;;;5000275;28;20053;-65
2022/06/05 07:40:17;;;;;;;7.32;2.90;;;;;;;;;;4999281;28;20900;-64
2022/06/05 07:42:44;;;;;;;6.47;3.33;;;;;;;;;;4997994;28;20083;-64
2022/06/05 07:45:13;;;;;;;4.80;2.67;;;;;;;;;;4998207;28;20042;-64
2022/06/05 07:47:44;;;;;;;5.93;3.35;;;;;;;;;;4997754;28;20442;-64
2022/06/05 07:50:12;;;;;;;5.43;3.40;;;;;;;;;;4998368;28;20046;-65
2022/06/05 07:55:23;;;;;;;8.45;3.50;;;;;;;;;;5000903;28;20060;-64
2022/06/05 07:57:50;;;;;;;6.35;2.75;;;;;;;;;;5000787;28;20149;-64
2022/06/05 08:00:17;;;;;;;5.07;2.70;;;;;;;;;;5004120;28;20034;-64
2022/06/05 08:02:44;;;;;;;5.00;2.47;;;;;;;;;;5001249;28;20069;-64
2022/06/05 08:05:11;;;;;;;5.82;2.83;;;;;;;;;;5002144;28;20934;-64
2022/06/05 08:07:37;;;;;;;5.18;2.80;;;;;;;;;;5004398;28;20056;-64
2022/06/05 08:10:06;;;;;;;8.02;2.58;;;;;;;;;;5002606;28;20061;-64
2022/06/05 08:12:33;;;;;;;4.47;2.10;;;;;;;;;;5000236;28;20044;-64
2022/06/05 08:15:02;;;;;;;4.53;2.28;;;;;;;;;;5000091;28;20038;-64
2022/06/05 08:17:33;;;;;;;3.92;2.20;;;;;;;;;;4999571;28;20046;-63
2022/06/05 08:20:00;;;;;;;5.57;2.50;;;;;;;;;;4998959;28;20505;-63
2022/06/05 08:22:27;;;;;;;4.55;2.50;;;;;;;;;;4997828;28;20041;-63
2022/06/05 08:24:53;;;;;;;4.25;2.40;;;;;;;;;;4998844;28;20056;-63
2022/06/05 08:27:23;;;;;;;5.28;2.63;;;;;;;;;;5000871;28;20121;-63
2022/06/05 08:29:50;;;;;;;5.90;2.50;;;;;;;;;;5000004;28;20045;-63
2022/06/05 08:32:17;;;;;;;7.97;3.42;;;;;;;;;;4999854;28;20056;-63
2022/06/05 08:34:44;;;;;;;4.80;2.63;;;;;;;;;;5000716;28;20116;-63
2022/06/05 08:43:00;;;;;;;5.72;3.28;;;;;;;;;;4997473;28;20122;-62
2022/06/05 08:45:35;;;;;;;5.90;3.33;;;;;;;;;;4996796;28;20123;-63
2022/06/05 08:48:07;;;;;;;5.38;3.17;;;;;;;;;;4996861;28;20079;-64
2022/06/05 08:50:39;;;;;;;5.32;3.40;;;;;;;;;;4997164;28;20061;-62
2022/06/05 08:53:13;;;;;;;5.70;3.80;;;;;;;;;;5011969;28;20049;-62
2022/06/05 08:55:46;;;;;;;5.82;4.10;;;;;;;;;;4996802;28;20045;-62
2022/06/05 08:58:15;;;;;;;6.43;4.15;;;;;;;;;;4996254;28;20064;-62
2022/06/05 09:00:52;;;;;;;6.43;4.10;;;;;;;;;;4995419;28;20042;-62
2022/06/05 09:03:25;;;;;;;7.32;4.90;;;;;;;;;;4996506;28;20046;-63
2022/06/05 09:05:52;;;;;;;;;;;;;;;;;;4997546;28;20096;-63
2022/06/05 09:08:23;;;;;;;8.13;5.20;;;;;;;;;;4997282;28;19941;-63
2022/06/05 09:10:52;;;;;;;9.27;5.07;;;;;;;;;;4997740;28;20095;-63
2022/06/05 09:13:26;;;;;;;8.10;5.72;;;;;;;;;;4997031;28;20050;-63
2022/06/05 09:16:03;;;;;;;7.72;5.60;;;;;;;;;;5014895;28;20053;-63
2022/06/05 09:18:35;;;;;;;10.55;5.80;;;;;;;;;;5000083;28;20042;-63
2022/06/05 09:21:06;;;;;;;7.95;5.78;;;;;;;;;;4998444;28;20141;-62
2022/06/05 09:23:41;;;;;;;9.70;6.13;;;;;;;;;;4996174;28;20056;-63
2022/06/05 09:26:12;;;;;;;9.77;6.25;;;;;;;;;;5000898;28;20046;-63
2022/06/05 09:28:39;;;;;;;10.27;6.72;;;;;;;;;;4999761;28;20042;-63
2022/06/05 09:31:24;;;;;;;12.63;7.25;;;;;;;;;;4998021;28;20645;-63
2022/06/05 09:33:52;;;;;;;10.40;6.90;;;;;;;;;;4998498;28;20046;-63
2022/06/05 09:36:22;;;;;;;9.73;6.95;;;;;;;;;;4998639;28;20041;-63
2022/06/05 09:38:52;;;;;;;9.13;6.57;;;;;;;;;;4998923;28;20103;-63
2022/06/05 09:41:34;;;;;;;9.82;6.93;;;;;;;;;;4998735;28;20038;-63
2022/06/05 09:44:19;;;;;;;8.45;5.90;;;;;;;;;;4999614;28;20077;-63
2022/06/05 09:46:49;;;;;;;11.07;6.63;;;;;;;;;;5001137;28;20107;-63
2022/06/05 09:49:19;;;;;;;9.75;6.97;;;;;;;;;;5005367;28;20905;-63
2022/06/05 09:51:45;;;;;;;9.88;7.07;;;;;;;;;;5002588;28;20062;-63
2022/06/05 09:54:12;;;;;;;13.15;7.88;;;;;;;;;;5001639;28;20505;-63
2022/06/05 09:59:30;;;;;;;12.45;7.35;;;;;;;;;;5000899;28;20084;-63
2022/06/05 10:01:59;;;;;;;9.45;6.85;;;;;;;;;;4998807;28;20640;-63
2022/06/05 10:04:33;;;;;;;9.85;6.70;;;;;;;;;;5000356;28;20636;-63
2022/06/05 10:07:06;;;;;;;11.50;6.55;;;;;;;;;;5001647;28;20042;-63
2022/06/05 10:09:44;;;;;;;8.40;6.35;;;;;;;;;;5001592;28;20046;-63
2022/06/05 10:12:32;;;;;;;8.48;5.55;;;;;;;;;;5000379;28;20069;-63
2022/06/05 10:14:59;;;;;;;7.38;5.35;;;;;;;;;;5001842;28;20448;-64
2022/06/05 10:17:28;;;;;;;7.45;5.30;;;;;;;;;;5005053;28;21261;-63
2022/06/05 10:19:58;;;;;;;7.88;4.82;;;;;;;;;;5007481;28;20061;-65
2022/06/05 10:22:27;;;;;;;8.73;5.57;;;;;;;;;;5003629;28;20148;-65
2022/06/05 10:24:57;;;;;;;7.50;4.20;;;;;;;;;;5005017;28;20482;-65
2022/06/05 10:27:24;;;;;;;5.60;3.60;;;;;;;;;;5005728;28;20065;-65
2022/06/05 10:29:54;;;;;;;6.22;3.42;;;;;;;;;;5036592;28;20103;-65
2022/06/05 10:32:27;;;;;;;5.45;3.33;;;;;;;;;;5002720;28;20072;-65
2022/06/05 10:34:56;;;;;;;5.60;2.97;;;;;;;;;;5003869;28;20038;-65
2022/06/05 10:37:29;;;;;;;4.68;2.80;;;;;;;;;;5005181;28;20050;-65
2022/06/05 10:39:55;;;;;;;4.90;2.90;;;;;;;;;;5006347;28;20030;-65
2022/06/05 10:42:40;;;;;;;5.68;3.25;;;;;;;;;;5005986;28;20049;-65
2022/06/05 10:45:16;;;;;;;4.63;3.00;;;;;;;;;;5005453;28;20046;-64
2022/06/05 10:47:43;;;;;;;5.50;2.90;;;;;;;;;;5005438;28;20054;-64
2022/06/05 10:50:15;;;;;;;5.68;2.75;;;;;;;;;;5008281;28;20081;-64
2022/06/05 10:52:53;;;;;;;5.03;2.85;;;;;;;;;;5036157;28;20046;-64
2022/06/05 10:55:20;;;;;;;5.80;2.90;;;;;;;;;;5004297;28;20079;-64
2022/06/05 10:57:50;;;;;;;4.25;2.60;;;;;;;;;;5005930;28;20030;-64
2022/06/05 11:00:22;;;;;;;4.50;2.92;;;;;;;;;;5004152;28;20034;-64
2022/06/05 11:02:50;;;;;;;4.95;2.70;;;;;;;;;;5000556;28;20049;-63
2022/06/05 11:05:27;;;;;;;5.15;2.95;;;;;;;;;;5003706;28;20057;-62
2022/06/05 11:07:57;;;;;;;5.85;3.53;;;;;;;;;;5004206;28;20046;-63
2022/06/05 11:16:19;;;;;;;6.35;3.72;;;;;;;;;;5006313;28;20700;-63
2022/06/05 11:18:45;;;;;;;6.57;3.22;;;;;;;;;;5005671;28;20034;-64
2022/06/05 11:21:13;;;;;;;6.18;3.42;;;;;;;;;;5006177;28;20034;-63
2022/06/05 11:23:41;;;;;;;5.32;3.30;;;;;;;;;;5005329;28;22267;-63
2022/06/05 11:26:08;;;;;;;6.18;3.92;;;;;;;;;;5008608;28;20030;-63
2022/06/05 11:28:34;;;;;;;6.90;3.72;;;;;;;;;;5005641;28;20081;-64
2022/06/05 11:31:04;;;;;;;5.60;3.15;;;;;;;;;;5005459;28;20750;-63
2022/06/05 11:33:32;;;;;;;6.47;3.72;;;;;;;;;;5006153;28;20038;-63
2022/06/05 11:35:59;;;;;;;7.68;4.00;;;;;;;;;;5005569;28;20038;-63
2022/06/05 11:38:31;;;;;;;6.82;4.20;;;;;;;;;;5006785;28;20069;-63
2022/06/05 11:41:02;;;;;;;6.22;3.67;;;;;;;;;;5005974;28;20061;-63
2022/06/05 11:43:32;;;;;;;5.72;3.03;;;;;;;;;;5004924;28;20046;-63
2022/06/05 11:46:10;;;;;;;5.35;3.22;;;;;;;;;;5005136;28;20479;-64
2022/06/05 11:48:51;;;;;;;6.10;3.63;;;;;;;;;;5006545;28;20078;-64
2022/06/05 11:51:27;;;;;;;7.47;3.53;;;;;;;;;;5006426;28;20045;-64
2022/06/05 11:54:10;;;;;;;9.00;3.83;;;;;;;;;;5003773;28;20746;-64
2022/06/05 11:56:48;;;;;;;7.75;3.78;;;;;;;;;;5005109;28;20033;-63
2022/06/05 11:59:25;;;;;;;7.53;4.13;;;;;;;;;;5006504;28;20574;-63
2022/06/05 12:01:57;;;;;;;7.05;3.53;;;;;;;;;;5003068;28;20037;-63
2022/06/05 12:04:30;;;;;;;8.85;3.90;;;;;;;;;;5020288;28;20787;-64
2022/06/05 12:06:58;;;;;;;7.57;4.10;;;;;;;;;;5006027;28;20042;-64
2022/06/05 12:09:29;;;;;;;7.45;4.32;;;;;;;;;;5001743;28;21210;-64
2022/06/05 12:12:04;;;;;;;8.85;4.53;;;;;;;;;;5001421;28;20049;-64
2022/06/05 12:14:43;;;;;;;6.85;4.07;;;;;;;;;;5002843;28;20049;-64
2022/06/05 12:17:23;;;;;;;8.50;4.78;;;;;;;;;;5005278;28;20557;-64
2022/06/05 12:19:55;;;;;;;7.85;4.80;;;;;;;;;;5004192;28;20544;-63
2022/06/05 12:22:26;;;;;;;8.73;5.38;;;;;;;;;;5000798;28;20503;-64
2022/06/05 12:24:56;;;;;;;8.68;5.70;;;;;;;;;;5003502;28;20061;-63
2022/06/05 12:27:23;;;;;;;9.00;5.30;;;;;;;;;;5004644;28;20057;-64
2022/06/05 12:29:58;;;;;;;8.63;5.10;;;;;;;;;;5005055;28;20041;-62
2022/06/05 12:32:42;;;;;;;6.72;4.53;;;;;;;;;;5004619;28;20110;-64
2022/06/05 12:35:15;;;;;;;9.27;5.55;;;;;;;;;;5003499;28;20061;-63
2022/06/05 12:38:04;;;;;;;8.83;4.53;;;;;;;;;;5001686;28;20034;-63
2022/06/05 12:40:35;;;;;;;7.55;4.82;;;;;;;;;;4999603;28;20037;-64
2022/06/05 12:43:14;;;;;;;8.80;4.13;;;;;;;;;;5001856;28;20073;-64
2022/06/05 12:45:42;;;;;;;8.02;4.63;;;;;;;;;;5000228;28;20080;-64
2022/06/05 12:48:14;;;;;;;8.27;5.40;;;;;;;;;;5005161;28;20029;-64
2022/06/05 12:50:43;;;;;;;8.48;4.88;;;;;;;;;;5003492;28;20049;-64
2022/06/05 12:53:27;;;;;;;7.82;4.53;;;;;;;;;;5004482;28;20050;-64
2022/06/05 12:56:12;;;;;;;7.45;3.92;;;;;;;;;;5004109;28;20042;-64
2022/06/05 12:58:48;;;;;;;6.50;3.60;;;;;;;;;;5003707;28;20038;-65
2022/06/05 13:01:41;;;;;;;7.15;3.90;;;;;;;;;;4996128;28;20042;-64
2022/06/05 13:04:08;;;;;;;10.38;3.60;;;;;;;;;;4990318;28;20051;-64
2022/06/05 13:06:37;;;;;;;6.68;3.85;;;;;;;;;;4998489;28;20035;-64
2022/06/05 13:09:16;;;;;;;8.13;4.53;;;;;;;;;;5000080;28;20038;-64
2022/06/05 13:11:47;;;;;;;8.40;4.15;;;;;;;;;;4995429;28;20041;-64
2022/06/05 13:14:25;;;;;;;6.40;3.80;;;;;;;;;;4998215;28;20050;-64
2022/06/05 13:16:58;;;;;;;5.88;2.95;;;;;;;;;;4996889;28;20050;-64
2022/06/05 13:19:27;;;;;;;6.30;3.83;;;;;;;;;;5000677;28;20066;-64
2022/06/05 13:22:12;;;;;;;6.45;3.80;;;;;;;;;;5002645;28;20268;-64
2022/06/05 13:24:54;;;;;;;8.35;3.78;;;;;;;;;;5007575;28;20081;-64
2022/06/05 13:27:23;;;;;;;7.90;4.50;;;;;;;;;;5039013;28;20042;-65
2022/06/05 13:30:08;;;;;;;6.63;4.00;;;;;;;;;;5007131;28;21036;-64
2022/06/05 13:32:38;;;;;;;6.75;4.57;;;;;;;;;;5006495;28;20624;-64
2022/06/05 13:35:23;;;;;;;8.57;4.53;;;;;;;;;;5006177;28;20241;-64
2022/06/05 13:37:57;;;;;;;7.45;4.50;;;;;;;;;;5006202;28;20042;-64
2022/06/05 13:40:32;;;;;;;8.30;3.85;;;;;;;;;;5004911;28;20041;-64
2022/06/05 13:43:01;;;;;;;9.50;3.92;;;;;;;;;;5004329;28;20057;-64
2022/06/05 13:45:28;;;;;;;8.02;3.88;;;;;;;;;;5005129;28;20045;-64
2022/06/05 13:47:58;;;;;;;8.38;3.90;;;;;;;;;;5006352;28;20056;-64
2022/06/05 13:50:29;;;;;;;6.65;3.80;;;;;;;;;;5004498;28;20046;-64
2022/06/05 13:53:14;;;;;;;6.22;3.40;;;;;;;;;;5004002;28;20133;-64
2022/06/05 13:55:47;;;;;;;5.57;3.30;;;;;;;;;;5002077;28;20056;-64
2022/06/05 13:58:32;;;;;;;4.93;2.83;;;;;;;;;;5017898;28;20379;-64
2022/06/05 14:01:04;;;;;;;6.60;3.72;;;;;;;;;;5001227;28;20287;-64
2022/06/05 14:03:51;;;;;;;6.97;3.50;;;;;;;;;;5001479;28;20038;-64
2022/06/05 14:06:36;;;;;;;5.97;3.95;;;;;;;;;;5003984;28;20065;-64
2022/06/05 14:09:08;;;;;;;5.13;3.08;;;;;;;;;;5002858;28;20102;-64
2022/06/05 14:11:44;;;;;;;5.82;3.13;;;;;;;;;;5002904;28;20129;-64
2022/06/05 14:14:11;;;;;;;5.88;2.58;;;;;;;;;;5002901;28;20076;-64
2022/06/05 14:16:45;;;;;;;4.03;2.10;;;;;;;;;;5003164;28;20848;-63
2022/06/05 14:19:21;;;;;;;5.40;2.47;;;;;;;;;;5003548;28;20042;-63
2022/06/05 14:21:54;;;;;;;5.88;2.42;;;;;;;;;;5002596;28;20794;-62
2022/06/05 14:24:24;;;;;;;4.88;2.63;;;;;;;;;;5002032;28;20062;-64
2022/06/05 14:26:56;;;;;;;4.93;2.75;;;;;;;;;;5004429;28;20054;-63
2022/06/05 14:29:24;;;;;;;5.57;2.60;;;;;;;;;;5004947;28;20053;-62
2022/06/05 14:31:58;;;;;;;4.65;2.40;;;;;;;;;;5003418;28;20053;-59
2022/06/05 14:34:31;;;;;;;4.13;2.33;;;;;;;;;;5003815;28;20611;-64
2022/06/05 14:37:05;;;;;;;4.25;2.30;;;;;;;;;;5006029;28;20891;-64
2022/06/05 14:39:35;;;;;;;4.72;2.45;;;;;;;;;;5004646;28;20045;-64
2022/06/05 14:42:14;;;;;;;4.57;2.40;;;;;;;;;;5004418;28;20042;-64
2022/06/05 14:44:43;;;;;;;4.75;2.35;;;;;;;;;;5004425;28;20066;-63
2022/06/05 14:47:12;;;;;;;5.32;2.00;;;;;;;;;;5004424;28;20042;-59
2022/06/05 14:49:56;;;;;;;4.28;2.33;;;;;;;;;;5005146;28;20537;-63
2022/06/05 14:52:32;;;;;;;4.20;2.22;;;;;;;;;;5002443;28;20061;-63
2022/06/05 14:57:53;;;;;;;3.63;1.80;;;;;;;;;;5006948;28;20041;-63
2022/06/05 15:00:28;;;;;;;4.15;2.45;;;;;;;;;;5005870;28;20049;-62
2022/06/05 15:02:58;;;;;;;5.20;1.88;;;;;;;;;;5003146;28;20041;-63
2022/06/05 15:05:33;;;;;;;7.20;2.40;;;;;;;;;;5037634;28;20175;-63
2022/06/05 15:08:18;;;;;;;4.90;2.28;;;;;;;;;;5037454;28;22125;-63
2022/06/05 15:10:52;;;;;;;5.18;1.92;;;;;;;;;;5006328;28;21816;-64
2022/06/05 15:13:25;;;;;;;4.25;2.15;;;;;;;;;;5005878;28;20061;-64
2022/06/05 15:16:18;;;;;;;4.05;2.20;;;;;;;;;;5005149;28;20040;-64
2022/06/05 15:18:46;;;;;;;5.00;2.30;;;;;;;;;;5010127;28;20202;-64
2022/06/05 15:21:27;;;;;;;4.60;1.95;;;;;;;;;;5004854;28;20351;-63
2022/06/05 15:24:07;;;;;;;3.97;2.10;;;;;;;;;;5003827;28;20107;-63
2022/06/05 15:26:33;;;;;;;4.43;2.00;;;;;;;;;;4999868;28;20034;-65
2022/06/05 15:29:00;;;;;;;3.58;1.58;;;;;;;;;;5003188;28;20072;-63